createdAt,value
2023-03-19T00:00:35.514Z,13.80
2023-03-19T00:05:37.117Z,16.20
2023-03-19T00:10:39.278Z,13.40
2023-03-19T00:15:41.594Z,12.20
2023-03-19T00:20:43.607Z,20.80
2023-03-19T00:25:45.189Z,19.80
2023-03-19T00:30:47.343Z,11.80
2023-03-19T00:35:48.960Z,14.80
2023-03-19T00:40:50.549Z,12.50
2023-03-19T00:45:52.145Z,18.90
2023-03-19T00:50:53.717Z,12.10
2023-03-19T00:55:55.252Z,16.00
2023-03-19T01:00:57.354Z,18.30
2023-03-19T01:05:59.329Z,12.50
2023-03-19T01:11:15.441Z,10.80
2023-03-19T01:16:17.091Z,11.50
2023-03-19T01:21:18.666Z,12.50
2023-03-19T01:26:20.191Z,14.90
2023-03-19T01:31:22.165Z,14.10
2023-03-19T01:36:23.858Z,13.00
2023-03-19T01:41:26.423Z,14.60
2023-03-19T01:46:34.471Z,14.00
2023-03-19T01:51:41.590Z,14.90
2023-03-19T01:56:47.132Z,11.30
2023-03-19T02:02:16.532Z,12.60
2023-03-19T02:07:18.614Z,14.10
2023-03-19T02:12:20.137Z,17.90
2023-03-19T02:17:22.110Z,13.90
2023-03-19T02:22:27.542Z,15.40
2023-03-19T02:27:29.090Z,21.70
2023-03-19T02:32:30.628Z,19.10
2023-03-19T02:37:33.784Z,13.30
2023-03-19T02:42:35.674Z,14.40
2023-03-19T02:47:37.233Z,14.90
2023-03-19T02:52:39.317Z,12.40
2023-03-19T02:57:40.913Z,16.10
2023-03-19T03:02:42.639Z,15.80
2023-03-19T03:07:45.002Z,17.90
2023-03-19T03:12:46.602Z,24.00
2023-03-19T03:17:48.161Z,20.50
2023-03-19T03:22:49.760Z,21.70
2023-03-19T03:27:52.076Z,12.20
2023-03-19T03:32:53.685Z,13.00
2023-03-19T03:37:55.474Z,9.90
2023-03-19T03:42:57.344Z,13.10
2023-03-19T03:47:58.872Z,12.00
2023-03-19T03:53:00.399Z,11.80
2023-03-19T03:58:01.963Z,14.70
2023-03-19T04:03:03.821Z,14.30
2023-03-19T04:08:07.134Z,12.50
2023-03-19T04:13:12.575Z,11.70
2023-03-19T04:18:14.058Z,11.70
2023-03-19T04:23:15.649Z,9.70
2023-03-19T04:28:17.556Z,9.00
2023-03-19T04:33:19.315Z,14.20
2023-03-19T04:38:21.166Z,10.90
2023-03-19T04:43:24.402Z,10.50
2023-03-19T04:48:26.590Z,14.50
2023-03-19T04:53:28.353Z,10.40
2023-03-19T04:58:29.884Z,15.50
2023-03-19T05:03:31.782Z,15.20
2023-03-19T05:08:33.938Z,12.00
2023-03-19T05:13:35.884Z,13.50
2023-03-19T05:18:40.703Z,13.80
2023-03-19T05:23:42.969Z,15.70
2023-03-19T05:28:44.442Z,14.90
2023-03-19T05:33:45.930Z,17.80
2023-03-19T05:38:47.478Z,16.70
2023-03-19T05:43:48.996Z,13.90
2023-03-19T05:48:51.635Z,13.40
2023-03-19T05:53:53.160Z,17.70
2023-03-19T05:58:54.804Z,15.90
2023-03-19T06:03:56.326Z,18.10
2023-03-19T06:08:57.966Z,13.20
2023-03-19T06:13:59.441Z,13.30
2023-03-19T06:19:01.247Z,12.60
2023-03-19T06:24:02.887Z,12.20
2023-03-19T06:29:04.462Z,15.70
2023-03-19T06:34:06.044Z,12.60
2023-03-19T06:39:07.722Z,15.00
2023-03-19T06:44:09.303Z,13.40
2023-03-19T06:49:11.462Z,14.20
2023-03-19T06:54:12.938Z,10.80
2023-03-19T06:59:14.808Z,16.50
2023-03-19T07:04:16.852Z,19.80
2023-03-19T07:09:18.409Z,15.60
2023-03-19T07:14:20.000Z,10.80
2023-03-19T07:19:21.680Z,13.30
2023-03-19T07:24:23.252Z,15.80
2023-03-19T07:29:24.740Z,13.70
2023-03-19T07:34:26.516Z,13.50
2023-03-19T07:39:28.036Z,11.30
2023-03-19T07:44:29.493Z,11.50
2023-03-19T07:49:31.449Z,12.80
2023-03-19T07:54:33.178Z,13.60
2023-03-19T07:59:34.745Z,11.10
2023-03-19T08:04:37.418Z,11.70
2023-03-19T08:09:40.088Z,11.20
2023-03-19T08:14:41.645Z,10.70
2023-03-19T08:19:43.511Z,11.60
2023-03-19T08:24:45.159Z,10.10
2023-03-19T08:29:47.118Z,10.70
2023-03-19T08:34:49.762Z,11.10
2023-03-19T08:39:52.291Z,8.10
2023-03-19T08:44:53.852Z,10.90
2023-03-19T08:49:55.916Z,9.40
2023-03-19T08:54:57.445Z,11.20
2023-03-19T08:59:59.269Z,11.60
2023-03-19T09:05:00.947Z,8.70
2023-03-19T09:10:02.592Z,11.60
2023-03-19T09:15:04.722Z,10.20
2023-03-19T09:20:07.636Z,8.70
2023-03-19T09:25:09.590Z,7.70
2023-03-19T09:30:18.530Z,9.80
2023-03-19T09:35:20.585Z,10.00
2023-03-19T09:40:50.678Z,9.80
2023-03-19T09:45:52.431Z,10.00
2023-03-19T09:50:54.788Z,10.00
2023-03-19T09:55:59.520Z,9.30
2023-03-19T10:01:02.117Z,8.90
2023-03-19T10:06:09.606Z,10.00
2023-03-19T10:11:29.871Z,9.00
2023-03-19T10:16:31.828Z,9.40
2023-03-19T10:21:50.793Z,10.50
2023-03-19T10:27:00.419Z,10.20
2023-03-19T10:32:21.198Z,10.10
2023-03-19T10:37:26.204Z,9.40
2023-03-19T10:42:55.898Z,8.90
2023-03-19T10:47:59.109Z,9.20
2023-03-19T10:58:16.258Z,7.70
2023-03-19T11:03:33.959Z,7.40
2023-03-19T11:08:37.824Z,7.90
2023-03-19T11:13:39.411Z,7.30
2023-03-19T11:18:41.257Z,6.40
2023-03-19T11:23:43.206Z,7.70
2023-03-19T11:28:44.787Z,6.40
2023-03-19T11:34:14.300Z,6.70
2023-03-19T11:39:30.431Z,7.10
2023-03-19T11:44:58.132Z,7.30
2023-03-19T11:50:17.990Z,9.30
2023-03-19T11:55:36.183Z,7.60
2023-03-19T12:00:41.357Z,6.70
2023-03-19T12:05:58.163Z,8.00
2023-03-19T12:11:18.655Z,6.30
2023-03-19T12:16:45.757Z,7.40
2023-03-19T12:21:59.984Z,7.00
2023-03-19T12:27:28.190Z,7.70
2023-03-19T12:32:54.392Z,7.50
2023-03-19T12:38:03.132Z,7.10
2023-03-19T12:43:19.679Z,6.90
2023-03-19T12:48:51.458Z,7.60
2023-03-19T12:54:01.417Z,7.10
2023-03-19T12:59:14.394Z,6.70
2023-03-19T13:04:31.032Z,7.30
2023-03-19T13:09:57.818Z,7.60
2023-03-19T13:15:24.281Z,6.80
2023-03-19T13:20:56.717Z,7.50
2023-03-19T13:26:01.417Z,5.90
2023-03-19T13:31:08.813Z,5.50
2023-03-19T13:36:15.243Z,5.70
2023-03-19T13:41:35.420Z,6.20
2023-03-19T13:46:40.093Z,6.50
2023-03-19T13:51:41.724Z,7.70
2023-03-19T13:57:01.032Z,6.60
2023-03-19T14:02:25.142Z,6.90
2023-03-19T14:07:30.489Z,12.50
2023-03-19T14:12:36.371Z,6.40
2023-03-19T14:18:02.454Z,6.80
2023-03-19T14:23:11.332Z,8.90
2023-03-19T14:28:19.623Z,11.10
2023-03-19T14:33:35.714Z,8.70
2023-03-19T14:38:44.142Z,7.60
2023-03-19T14:43:45.599Z,12.50
2023-03-19T14:48:58.415Z,12.20
2023-03-19T14:54:21.042Z,8.50
2023-03-19T14:59:23.167Z,6.80
2023-03-19T15:04:27.187Z,10.50
2023-03-19T15:09:32.392Z,10.60
2023-03-19T15:15:06.064Z,7.90
2023-03-19T15:20:21.409Z,5.80
2023-03-19T15:25:23.937Z,12.20
2023-03-19T15:30:50.439Z,9.40
2023-03-19T15:36:03.185Z,17.30
2023-03-19T15:41:07.812Z,18.90
2023-03-19T15:46:16.305Z,19.80
2023-03-19T15:51:21.178Z,18.50
2023-03-19T15:56:24.335Z,15.00
2023-03-19T16:06:39.622Z,11.40
2023-03-19T16:11:43.648Z,12.80
2023-03-19T16:16:47.473Z,17.30
2023-03-19T16:21:48.999Z,19.00
2023-03-19T16:26:52.010Z,20.10
2023-03-19T16:31:59.888Z,20.40
2023-03-19T16:37:01.744Z,25.70
2023-03-19T16:42:36.585Z,22.50
2023-03-19T16:47:38.166Z,19.10
2023-03-19T16:52:40.929Z,18.30
2023-03-19T16:57:42.570Z,21.80
2023-03-19T17:02:44.057Z,16.00
2023-03-19T17:07:45.585Z,19.00
2023-03-19T17:12:52.248Z,36.30
2023-03-19T17:17:54.715Z,33.00
2023-03-19T17:22:56.253Z,33.20
2023-03-19T17:27:57.855Z,35.10
2023-03-19T17:32:59.912Z,34.90
2023-03-19T17:38:01.714Z,27.00
2023-03-19T17:43:08.235Z,37.80
2023-03-19T17:48:25.504Z,28.50
2023-03-19T17:53:27.262Z,25.30
2023-03-19T17:58:28.936Z,26.90
2023-03-19T18:03:31.993Z,32.90
2023-03-19T18:08:34.249Z,34.50
2023-03-19T18:13:36.495Z,36.90
2023-03-19T18:18:38.037Z,38.40
2023-03-19T18:23:39.695Z,38.10
2023-03-19T18:28:41.246Z,45.40
2023-03-19T18:33:50.297Z,53.00
2023-03-19T18:38:55.068Z,46.30
2023-03-19T18:43:56.809Z,46.50
2023-03-19T18:49:07.158Z,40.50
2023-03-19T18:54:11.096Z,52.10
2023-03-19T18:59:33.115Z,48.80
2023-03-19T19:04:34.770Z,40.60
2023-03-19T19:09:36.393Z,38.10
2023-03-19T19:14:38.010Z,33.40
2023-03-19T19:19:40.830Z,32.30
2023-03-19T19:24:45.308Z,35.70
2023-03-19T19:29:48.781Z,34.60
2023-03-19T19:34:51.939Z,34.90
2023-03-19T19:39:53.543Z,24.90
2023-03-19T19:44:59.328Z,28.00
2023-03-19T19:50:00.881Z,29.90
2023-03-19T19:55:02.443Z,24.00
2023-03-19T20:00:04.746Z,22.60
2023-03-19T20:05:07.377Z,22.90
2023-03-19T20:10:10.193Z,21.10
2023-03-19T20:15:17.478Z,22.30
2023-03-19T20:20:28.264Z,22.50
2023-03-19T20:25:34.413Z,23.90
2023-03-19T20:30:39.314Z,23.40
2023-03-19T20:35:41.151Z,23.60
2023-03-19T20:40:53.061Z,24.60
2023-03-19T20:45:56.994Z,24.60
2023-03-19T20:51:01.438Z,26.30
2023-03-19T20:56:04.882Z,21.90
2023-03-19T21:01:06.910Z,22.40
2023-03-19T21:06:21.613Z,20.20
2023-03-19T21:11:33.690Z,20.30
2023-03-19T21:16:36.458Z,20.80
2023-03-19T21:21:38.910Z,20.70
2023-03-19T21:26:42.515Z,19.80
2023-03-19T21:31:45.033Z,20.00
2023-03-19T21:36:47.037Z,21.20
2023-03-19T21:41:48.627Z,21.60
2023-03-19T21:46:50.597Z,21.70
2023-03-19T21:51:52.129Z,20.10
2023-03-19T21:56:53.719Z,20.00
2023-03-19T22:01:56.498Z,22.00
2023-03-19T22:06:58.642Z,26.00
2023-03-19T22:12:00.412Z,26.40
2023-03-19T22:17:02.187Z,22.80
2023-03-19T22:22:04.225Z,25.40
2023-03-19T22:27:05.861Z,24.20
2023-03-19T22:32:18.416Z,25.10
2023-03-19T22:37:30.159Z,24.70
2023-03-19T22:42:31.794Z,24.20
2023-03-19T22:47:37.185Z,24.10
2023-03-19T22:52:38.653Z,23.70
2023-03-19T22:57:40.673Z,20.20
2023-03-19T23:02:42.795Z,22.10
2023-03-19T23:07:44.288Z,23.00
2023-03-19T23:12:46.701Z,18.10
2023-03-19T23:17:49.648Z,18.80
2023-03-19T23:22:51.436Z,19.00
2023-03-19T23:27:57.856Z,19.20
2023-03-19T23:33:02.660Z,19.10
2023-03-19T23:38:04.505Z,18.60
2023-03-19T23:43:06.043Z,18.90
2023-03-19T23:48:13.665Z,17.30
2023-03-19T23:53:24.405Z,18.70
2023-03-19T23:58:40.264Z,18.00
